createdAt,value
2023-04-08T00:04:03.542Z,8.96
2023-04-08T00:09:08.148Z,8.95
2023-04-08T00:14:12.855Z,8.94
2023-04-08T00:19:17.875Z,8.94
2023-04-08T00:24:22.565Z,8.96
2023-04-08T00:29:27.684Z,8.96
2023-04-08T00:34:32.374Z,8.94
2023-04-08T00:39:37.445Z,8.93
2023-04-08T00:44:42.145Z,8.93
2023-04-08T00:49:46.682Z,8.92
2023-04-08T00:54:51.195Z,8.93
2023-04-08T00:59:55.852Z,8.93
2023-04-08T01:05:03.014Z,8.91
2023-04-08T01:10:11.374Z,8.91
2023-04-08T01:15:16.632Z,8.92
2023-04-08T01:20:21.886Z,8.92
2023-04-08T01:25:30.496Z,8.90
2023-04-08T01:30:36.154Z,8.90
2023-04-08T01:35:41.265Z,8.89
2023-04-08T01:40:46.951Z,8.88
2023-04-08T01:45:54.314Z,8.87
2023-04-08T01:51:00.674Z,8.85
2023-04-08T01:56:07.134Z,8.86
2023-04-08T02:01:13.021Z,8.85
2023-04-08T02:06:17.454Z,8.86
2023-04-08T02:11:22.366Z,8.86
2023-04-08T02:16:30.933Z,8.84
2023-04-08T02:21:39.181Z,8.84
2023-04-08T02:26:44.530Z,8.84
2023-04-08T02:31:49.960Z,8.81
2023-04-08T02:36:54.415Z,8.83
2023-04-08T02:41:59.365Z,8.82
2023-04-08T02:47:04.203Z,8.81
2023-04-08T02:52:09.096Z,8.80
2023-04-08T02:57:13.860Z,8.81
2023-04-08T03:02:18.806Z,8.80
2023-04-08T03:07:23.442Z,8.80
2023-04-08T03:12:27.997Z,8.80
2023-04-08T03:17:34.256Z,8.79
2023-04-08T03:22:38.488Z,8.79
2023-04-08T03:27:43.257Z,8.79
2023-04-08T03:32:48.070Z,8.76
2023-04-08T03:37:52.798Z,8.76
2023-04-08T03:42:57.210Z,8.74
2023-04-08T03:48:01.779Z,8.75
2023-04-08T03:53:06.590Z,8.75
2023-04-08T03:58:11.236Z,8.75
2023-04-08T04:03:15.854Z,8.73
2023-04-08T04:08:21.057Z,8.74
2023-04-08T04:13:25.792Z,8.73
2023-04-08T04:18:30.406Z,8.74
2023-04-08T04:23:35.400Z,8.73
2023-04-08T04:28:40.186Z,8.72
2023-04-08T04:33:44.655Z,8.72
2023-04-08T04:38:50.682Z,8.72
2023-04-08T04:43:55.745Z,8.70
2023-04-08T04:49:00.106Z,8.71
2023-04-08T04:54:04.755Z,8.71
2023-04-08T04:59:09.835Z,8.72
2023-04-08T05:04:14.525Z,8.71
2023-04-08T05:09:19.243Z,8.71
2023-04-08T05:14:24.062Z,8.72
2023-04-08T05:19:28.937Z,8.72
2023-04-08T05:24:33.852Z,8.70
2023-04-08T05:29:38.526Z,8.68
2023-04-08T05:34:43.089Z,8.75
2023-04-08T05:39:48.069Z,8.75
2023-04-08T05:44:52.998Z,8.77
2023-04-08T05:49:57.492Z,8.80
2023-04-08T05:55:02.025Z,8.85
2023-04-08T06:00:08.572Z,8.86
2023-04-08T06:05:13.241Z,8.89
2023-04-08T06:10:18.191Z,8.89
2023-04-08T06:15:23.179Z,8.89
2023-04-08T06:20:28.050Z,8.92
2023-04-08T06:25:32.776Z,8.95
2023-04-08T06:30:37.951Z,8.97
2023-04-08T06:35:42.626Z,8.95
2023-04-08T06:40:47.035Z,8.93
2023-04-08T06:45:51.781Z,8.92
2023-04-08T06:50:57.135Z,8.91
2023-04-08T06:56:02.219Z,8.90
2023-04-08T07:01:07.479Z,8.90
2023-04-08T07:06:12.597Z,8.90
2023-04-08T07:11:17.388Z,8.93
2023-04-08T07:16:22.577Z,8.99
2023-04-08T07:21:27.033Z,9.00
2023-04-08T07:26:31.980Z,8.97
2023-04-08T07:31:36.826Z,8.96
2023-04-08T07:36:41.370Z,8.94
2023-04-08T07:41:45.748Z,8.99
2023-04-08T07:46:51.360Z,9.03
2023-04-08T07:51:57.189Z,9.13
2023-04-08T07:57:02.159Z,9.16
2023-04-08T08:02:07.381Z,9.22
2023-04-08T08:07:12.092Z,9.23
2023-04-08T08:12:16.899Z,9.23
2023-04-08T08:17:21.977Z,9.26
2023-04-08T08:22:26.779Z,9.27
2023-04-08T08:27:31.242Z,9.27
2023-04-08T08:32:36.933Z,9.26
2023-04-08T08:37:42.519Z,9.28
2023-04-08T08:42:52.733Z,9.30
2023-04-08T08:47:57.914Z,9.32
2023-04-08T08:53:02.749Z,9.35
2023-04-08T08:58:07.798Z,9.32
2023-04-08T09:03:19.977Z,9.29
2023-04-08T09:08:31.192Z,9.27
2023-04-08T09:13:37.009Z,9.26
2023-04-08T09:18:44.278Z,9.26
2023-04-08T09:23:50.133Z,9.25
2023-04-08T09:29:08.488Z,9.25
2023-04-08T09:34:23.817Z,9.29
2023-04-08T09:39:28.439Z,9.33
2023-04-08T09:44:33.933Z,9.35
2023-04-08T09:49:43.064Z,9.37
2023-04-08T09:54:50.982Z,9.36
2023-04-08T09:59:58.603Z,9.38
2023-04-08T10:05:07.613Z,9.38
2023-04-08T10:10:13.634Z,9.36
2023-04-08T10:15:25.340Z,9.36
2023-04-08T10:20:46.602Z,9.33
2023-04-08T10:25:51.503Z,9.32
2023-04-08T10:30:57.070Z,9.32
2023-04-08T10:36:10.404Z,9.31
2023-04-08T10:41:21.270Z,9.33
2023-04-08T10:46:28.240Z,9.34
2023-04-08T10:51:34.085Z,9.32
2023-04-08T10:56:44.248Z,9.30
2023-04-08T11:01:51.715Z,9.30
2023-04-08T11:06:56.099Z,9.28
2023-04-08T11:12:01.680Z,9.27
2023-04-08T11:17:08.024Z,9.26
2023-04-08T11:22:14.251Z,9.25
2023-04-08T11:27:19.502Z,9.24
2023-04-08T11:32:24.787Z,9.23
2023-04-08T11:37:34.131Z,9.22
2023-04-08T11:42:39.471Z,9.22
2023-04-08T11:47:44.620Z,9.21
2023-04-08T11:52:50.295Z,9.20
2023-04-08T11:57:55.373Z,9.20
2023-04-08T12:03:00.242Z,9.19
2023-04-08T12:08:05.269Z,9.18
2023-04-08T12:13:09.965Z,9.17
2023-04-08T12:18:14.553Z,9.16
2023-04-08T12:23:19.271Z,9.15
2023-04-08T12:28:23.750Z,9.16
2023-04-08T12:33:28.336Z,9.17
2023-04-08T12:38:33.225Z,9.15
2023-04-08T12:43:38.756Z,9.15
2023-04-08T12:48:44.857Z,9.14
2023-04-08T12:53:49.617Z,9.13
2023-04-08T12:58:55.456Z,9.12
2023-04-08T13:04:00.184Z,9.11
2023-04-08T13:09:05.487Z,9.11
2023-04-08T13:14:10.668Z,9.11
2023-04-08T13:19:15.586Z,9.11
2023-04-08T13:24:20.669Z,9.10
2023-04-08T13:29:25.469Z,9.09
2023-04-08T13:34:30.411Z,9.08
2023-04-08T13:39:35.471Z,9.08
2023-04-08T13:44:40.204Z,9.08
2023-04-08T13:49:45.002Z,9.08
2023-04-08T13:54:49.871Z,9.08
2023-04-08T13:59:54.770Z,9.07
2023-04-08T14:04:59.310Z,9.09
2023-04-08T14:10:04.238Z,9.09
2023-04-08T14:15:09.804Z,9.08
2023-04-08T14:20:14.431Z,9.07
2023-04-08T14:25:19.158Z,9.08
2023-04-08T14:30:24.055Z,9.08
2023-04-08T14:35:28.466Z,9.07
2023-04-08T14:40:32.832Z,9.07
2023-04-08T14:45:37.323Z,9.07
2023-04-08T14:50:42.368Z,9.08
2023-04-08T14:55:47.331Z,9.09
2023-04-08T15:00:52.492Z,9.09
2023-04-08T15:05:57.381Z,9.08
2023-04-08T15:11:02.513Z,9.08
2023-04-08T15:16:07.467Z,9.08
2023-04-08T15:21:12.479Z,9.07
2023-04-08T15:26:17.360Z,9.07
2023-04-08T15:31:22.500Z,9.06
2023-04-08T15:36:27.319Z,9.07
2023-04-08T15:41:32.437Z,9.06
2023-04-08T15:46:37.874Z,9.06
2023-04-08T15:51:44.637Z,9.07
2023-04-08T15:56:49.738Z,9.06
2023-04-08T16:01:54.293Z,9.07
2023-04-08T16:06:59.136Z,9.07
2023-04-08T16:12:04.017Z,9.05
2023-04-08T16:17:08.877Z,9.06
2023-04-08T16:22:13.497Z,9.06
2023-04-08T16:27:18.037Z,9.05
2023-04-08T16:32:22.579Z,9.05
2023-04-08T16:37:27.260Z,9.05
2023-04-08T16:42:32.549Z,9.05
2023-04-08T16:47:39.003Z,9.06
2023-04-08T16:52:49.637Z,9.05
2023-04-08T16:57:54.976Z,9.06
2023-04-08T17:03:00.404Z,9.07
2023-04-08T17:08:05.941Z,9.06
2023-04-08T17:13:14.244Z,9.06
2023-04-08T17:18:19.931Z,9.06
2023-04-08T17:23:24.981Z,9.05
2023-04-08T17:28:29.615Z,9.05
2023-04-08T17:33:34.848Z,9.05
2023-04-08T17:38:40.419Z,9.04
2023-04-08T17:43:45.444Z,9.04
2023-04-08T17:48:49.854Z,9.04
2023-04-08T17:53:56.109Z,9.05
2023-04-08T17:59:01.436Z,9.05
2023-04-08T18:04:07.836Z,9.04
2023-04-08T18:09:12.798Z,9.04
2023-04-08T18:14:17.522Z,9.03
2023-04-08T18:19:23.871Z,9.03
2023-04-08T18:24:28.488Z,9.04
2023-04-08T18:29:32.975Z,9.04
2023-04-08T18:34:38.632Z,9.04
2023-04-08T18:39:44.690Z,9.04
2023-04-08T18:44:50.120Z,9.03
2023-04-08T18:49:56.282Z,9.04
2023-04-08T18:55:02.332Z,9.03
2023-04-08T19:00:08.493Z,9.03
2023-04-08T19:05:13.408Z,9.02
2023-04-08T19:10:18.204Z,9.03
2023-04-08T19:15:23.287Z,9.04
2023-04-08T19:20:28.387Z,9.04
2023-04-08T19:25:33.419Z,9.03
2023-04-08T19:30:38.738Z,9.03
2023-04-08T19:35:44.199Z,9.03
2023-04-08T19:40:49.048Z,9.03
2023-04-08T19:45:54.931Z,9.03
2023-04-08T19:50:59.820Z,9.03
2023-04-08T19:56:04.296Z,9.03
2023-04-08T20:01:09.695Z,9.02
2023-04-08T20:06:14.347Z,9.04
2023-04-08T20:11:19.057Z,9.03
2023-04-08T20:16:24.211Z,9.02
2023-04-08T20:21:28.892Z,9.02
2023-04-08T20:26:33.764Z,9.02
2023-04-08T20:31:39.376Z,9.02
2023-04-08T20:36:44.215Z,9.01
2023-04-08T20:41:48.645Z,9.01
2023-04-08T20:46:54.353Z,9.02
2023-04-08T20:51:59.121Z,9.02
2023-04-08T20:57:04.216Z,9.01
2023-04-08T21:02:09.853Z,9.01
2023-04-08T21:07:14.560Z,9.03
2023-04-08T21:12:19.530Z,9.01
2023-04-08T21:17:24.327Z,9.02
2023-04-08T21:22:29.290Z,9.01
2023-04-08T21:27:33.988Z,9.01
2023-04-08T21:32:38.914Z,9.00
2023-04-08T21:37:43.679Z,9.00
2023-04-08T21:42:48.096Z,9.00
2023-04-08T21:47:52.896Z,9.00
2023-04-08T21:52:57.858Z,9.00
2023-04-08T21:58:02.538Z,9.01
2023-04-08T22:03:07.595Z,9.00
2023-04-08T22:08:12.378Z,9.00
2023-04-08T22:13:18.514Z,9.00
2023-04-08T22:18:23.384Z,9.00
2023-04-08T22:23:28.129Z,9.00
2023-04-08T22:28:33.923Z,9.00
2023-04-08T22:33:38.582Z,9.00
2023-04-08T22:38:43.143Z,8.99
2023-04-08T22:43:47.798Z,8.99
2023-04-08T22:48:52.951Z,8.99
2023-04-08T22:53:57.965Z,8.99
2023-04-08T22:59:03.079Z,8.99
2023-04-08T23:04:07.931Z,8.99
2023-04-08T23:09:12.952Z,8.99
2023-04-08T23:14:17.826Z,8.98
2023-04-08T23:19:22.890Z,8.99
2023-04-08T23:24:27.740Z,8.98
2023-04-08T23:29:32.751Z,8.98
2023-04-08T23:34:37.484Z,8.98
2023-04-08T23:39:42.156Z,8.98
2023-04-08T23:44:47.052Z,8.97
2023-04-08T23:49:51.685Z,8.98
2023-04-08T23:54:56.413Z,8.97
